sensor_id;sensor_type;location;lat;lon;timestamp;temperature;humidity
74224;SHT31;62585;49.706;18.216;2023-06-22T00:00:53;19.79;84.48
74224;SHT31;62585;49.706;18.216;2023-06-22T00:03:30;19.89;84.67
74224;SHT31;62585;49.706;18.216;2023-06-22T00:05:56;19.85;85.12
74224;SHT31;62585;49.706;18.216;2023-06-22T00:08:22;19.65;86.60
74224;SHT31;62585;49.706;18.216;2023-06-22T00:10:48;19.65;85.39
74224;SHT31;62585;49.706;18.216;2023-06-22T00:13:14;19.71;86.02
74224;SHT31;62585;49.706;18.216;2023-06-22T00:15:40;19.76;85.51
74224;SHT31;62585;49.706;18.216;2023-06-22T00:18:08;19.65;87.48
74224;SHT31;62585;49.706;18.216;2023-06-22T00:20:34;19.47;88.40
74224;SHT31;62585;49.706;18.216;2023-06-22T00:23:03;19.43;89.35
74224;SHT31;62585;49.706;18.216;2023-06-22T00:25:36;19.45;88.49
74224;SHT31;62585;49.706;18.216;2023-06-22T00:28:03;19.48;88.36
74224;SHT31;62585;49.706;18.216;2023-06-22T00:30:30;19.48;87.47
74224;SHT31;62585;49.706;18.216;2023-06-22T00:32:56;19.38;87.68
74224;SHT31;62585;49.706;18.216;2023-06-22T00:35:22;19.43;88.26
74224;SHT31;62585;49.706;18.216;2023-06-22T00:37:48;19.30;87.54
74224;SHT31;62585;49.706;18.216;2023-06-22T00:40:14;19.37;88.17
74224;SHT31;62585;49.706;18.216;2023-06-22T00:42:40;19.37;87.69
74224;SHT31;62585;49.706;18.216;2023-06-22T00:45:07;19.37;87.54
74224;SHT31;62585;49.706;18.216;2023-06-22T00:47:37;19.48;87.05
74224;SHT31;62585;49.706;18.216;2023-06-22T00:50:06;19.48;86.88
74224;SHT31;62585;49.706;18.216;2023-06-22T00:52:32;19.34;88.06
74224;SHT31;62585;49.706;18.216;2023-06-22T00:55:02;19.27;88.12
74224;SHT31;62585;49.706;18.216;2023-06-22T00:57:28;19.35;87.97
74224;SHT31;62585;49.706;18.216;2023-06-22T00:59:55;19.28;88.44
74224;SHT31;62585;49.706;18.216;2023-06-22T01:02:21;19.18;88.11
74224;SHT31;62585;49.706;18.216;2023-06-22T01:04:47;19.26;88.24
74224;SHT31;62585;49.706;18.216;2023-06-22T01:07:29;19.24;88.53
74224;SHT31;62585;49.706;18.216;2023-06-22T01:10:07;19.21;87.53
74224;SHT31;62585;49.706;18.216;2023-06-22T01:12:39;19.20;88.34
74224;SHT31;62585;49.706;18.216;2023-06-22T01:15:11;19.02;88.70
74224;SHT31;62585;49.706;18.216;2023-06-22T01:17:39;18.99;88.76
74224;SHT31;62585;49.706;18.216;2023-06-22T01:20:08;18.95;89.28
74224;SHT31;62585;49.706;18.216;2023-06-22T01:25:20;18.72;90.68
74224;SHT31;62585;49.706;18.216;2023-06-22T01:30:30;18.72;90.37
74224;SHT31;62585;49.706;18.216;2023-06-22T01:33:01;18.77;89.91
74224;SHT31;62585;49.706;18.216;2023-06-22T01:35:28;18.77;89.80
74224;SHT31;62585;49.706;18.216;2023-06-22T01:37:54;18.90;88.35
74224;SHT31;62585;49.706;18.216;2023-06-22T01:40:21;18.95;88.36
74224;SHT31;62585;49.706;18.216;2023-06-22T01:42:48;18.92;88.70
74224;SHT31;62585;49.706;18.216;2023-06-22T01:45:14;18.86;88.51
74224;SHT31;62585;49.706;18.216;2023-06-22T01:47:40;19.02;88.07
74224;SHT31;62585;49.706;18.216;2023-06-22T01:50:07;18.99;88.20
74224;SHT31;62585;49.706;18.216;2023-06-22T01:52:32;18.89;88.44
74224;SHT31;62585;49.706;18.216;2023-06-22T01:55:00;18.89;88.55
74224;SHT31;62585;49.706;18.216;2023-06-22T01:57:27;18.93;88.20
74224;SHT31;62585;49.706;18.216;2023-06-22T02:00:00;19.02;87.61
74224;SHT31;62585;49.706;18.216;2023-06-22T02:02:27;19.09;87.25
74224;SHT31;62585;49.706;18.216;2023-06-22T02:05:04;19.09;87.23
74224;SHT31;62585;49.706;18.216;2023-06-22T02:07:52;19.03;87.59
74224;SHT31;62585;49.706;18.216;2023-06-22T02:12:56;19.03;87.53
74224;SHT31;62585;49.706;18.216;2023-06-22T02:15:23;18.90;87.69
74224;SHT31;62585;49.706;18.216;2023-06-22T02:17:49;18.90;87.90
74224;SHT31;62585;49.706;18.216;2023-06-22T02:20:15;18.90;87.84
74224;SHT31;62585;49.706;18.216;2023-06-22T02:22:41;18.88;88.36
74224;SHT31;62585;49.706;18.216;2023-06-22T02:25:07;18.90;87.50
74224;SHT31;62585;49.706;18.216;2023-06-22T02:27:33;18.99;87.09
74224;SHT31;62585;49.706;18.216;2023-06-22T02:30:00;18.92;87.84
74224;SHT31;62585;49.706;18.216;2023-06-22T02:32:26;18.90;87.78
74224;SHT31;62585;49.706;18.216;2023-06-22T02:34:52;19.07;86.78
74224;SHT31;62585;49.706;18.216;2023-06-22T02:37:18;19.11;86.76
74224;SHT31;62585;49.706;18.216;2023-06-22T02:39:44;19.06;86.86
74224;SHT31;62585;49.706;18.216;2023-06-22T02:42:10;18.88;87.85
74224;SHT31;62585;49.706;18.216;2023-06-22T02:44:38;18.99;86.99
74224;SHT31;62585;49.706;18.216;2023-06-22T02:47:05;19.03;87.19
74224;SHT31;62585;49.706;18.216;2023-06-22T02:49:30;18.93;87.71
74224;SHT31;62585;49.706;18.216;2023-06-22T02:51:57;18.88;87.82
74224;SHT31;62585;49.706;18.216;2023-06-22T02:54:23;18.86;87.96
74224;SHT31;62585;49.706;18.216;2023-06-22T02:56:48;18.86;87.97
74224;SHT31;62585;49.706;18.216;2023-06-22T02:59:16;18.88;88.06
74224;SHT31;62585;49.706;18.216;2023-06-22T03:01:42;18.83;88.08
74224;SHT31;62585;49.706;18.216;2023-06-22T03:04:08;18.82;88.17
74224;SHT31;62585;49.706;18.216;2023-06-22T03:06:35;18.88;87.70
74224;SHT31;62585;49.706;18.216;2023-06-22T03:09:04;18.96;87.12
74224;SHT31;62585;49.706;18.216;2023-06-22T03:11:31;18.85;87.68
74224;SHT31;62585;49.706;18.216;2023-06-22T03:13:57;18.82;88.02
74224;SHT31;62585;49.706;18.216;2023-06-22T03:16:23;18.82;88.06
74224;SHT31;62585;49.706;18.216;2023-06-22T03:18:49;18.90;87.51
74224;SHT31;62585;49.706;18.216;2023-06-22T03:21:15;18.95;87.28
74224;SHT31;62585;49.706;18.216;2023-06-22T03:23:42;19.03;86.95
74224;SHT31;62585;49.706;18.216;2023-06-22T03:26:09;18.99;87.45
74224;SHT31;62585;49.706;18.216;2023-06-22T03:28:35;18.92;87.74
74224;SHT31;62585;49.706;18.216;2023-06-22T03:31:00;18.89;88.25
74224;SHT31;62585;49.706;18.216;2023-06-22T03:33:26;18.79;89.08
74224;SHT31;62585;49.706;18.216;2023-06-22T03:35:55;18.73;89.90
74224;SHT31;62585;49.706;18.216;2023-06-22T03:38:21;18.68;89.89
74224;SHT31;62585;49.706;18.216;2023-06-22T03:40:47;18.72;89.73
74224;SHT31;62585;49.706;18.216;2023-06-22T03:43:12;18.68;90.53
74224;SHT31;62585;49.706;18.216;2023-06-22T03:45:38;18.63;90.47
74224;SHT31;62585;49.706;18.216;2023-06-22T03:48:06;18.63;90.77
74224;SHT31;62585;49.706;18.216;2023-06-22T03:50:31;18.63;90.98
74224;SHT31;62585;49.706;18.216;2023-06-22T03:52:57;18.68;91.03
74224;SHT31;62585;49.706;18.216;2023-06-22T03:55:23;18.66;90.90
74224;SHT31;62585;49.706;18.216;2023-06-22T03:57:49;18.68;90.76
74224;SHT31;62585;49.706;18.216;2023-06-22T04:00:15;18.68;91.13
74224;SHT31;62585;49.706;18.216;2023-06-22T04:02:41;18.77;91.10
74224;SHT31;62585;49.706;18.216;2023-06-22T04:05:09;18.80;90.77
74224;SHT31;62585;49.706;18.216;2023-06-22T04:07:35;18.80;91.02
74224;SHT31;62585;49.706;18.216;2023-06-22T04:10:04;18.89;90.54
74224;SHT31;62585;49.706;18.216;2023-06-22T04:12:29;18.88;90.55
74224;SHT31;62585;49.706;18.216;2023-06-22T04:14:55;18.93;90.64
74224;SHT31;62585;49.706;18.216;2023-06-22T04:17:22;18.96;90.53
74224;SHT31;62585;49.706;18.216;2023-06-22T04:19:51;19.03;88.96
74224;SHT31;62585;49.706;18.216;2023-06-22T04:22:17;19.14;88.73
74224;SHT31;62585;49.706;18.216;2023-06-22T04:24:43;19.13;89.22
74224;SHT31;62585;49.706;18.216;2023-06-22T04:27:09;19.16;89.72
74224;SHT31;62585;49.706;18.216;2023-06-22T04:29:35;19.10;90.14
74224;SHT31;62585;49.706;18.216;2023-06-22T04:32:01;19.17;89.10
74224;SHT31;62585;49.706;18.216;2023-06-22T04:34:31;19.31;88.34
74224;SHT31;62585;49.706;18.216;2023-06-22T04:36:57;19.45;87.87
74224;SHT31;62585;49.706;18.216;2023-06-22T04:39:27;19.50;88.03
74224;SHT31;62585;49.706;18.216;2023-06-22T04:41:53;19.55;88.38
74224;SHT31;62585;49.706;18.216;2023-06-22T04:44:20;19.57;88.43
74224;SHT31;62585;49.706;18.216;2023-06-22T04:46:55;19.57;88.73
74224;SHT31;62585;49.706;18.216;2023-06-22T04:49:26;19.71;88.58
74224;SHT31;62585;49.706;18.216;2023-06-22T04:51:59;19.86;88.81
74224;SHT31;62585;49.706;18.216;2023-06-22T04:54:25;19.76;87.53
74224;SHT31;62585;49.706;18.216;2023-06-22T04:56:51;19.75;88.06
74224;SHT31;62585;49.706;18.216;2023-06-22T04:59:23;19.93;87.73
74224;SHT31;62585;49.706;18.216;2023-06-22T05:01:57;19.93;87.77
74224;SHT31;62585;49.706;18.216;2023-06-22T05:04:26;20.09;87.25
74224;SHT31;62585;49.706;18.216;2023-06-22T05:06:56;20.13;87.24
74224;SHT31;62585;49.706;18.216;2023-06-22T05:09:22;20.29;86.83
74224;SHT31;62585;49.706;18.216;2023-06-22T05:11:49;20.26;86.90
74224;SHT31;62585;49.706;18.216;2023-06-22T05:14:14;20.54;85.67
74224;SHT31;62585;49.706;18.216;2023-06-22T05:16:41;20.58;85.25
74224;SHT31;62585;49.706;18.216;2023-06-22T05:19:07;20.72;85.80
74224;SHT31;62585;49.706;18.216;2023-06-22T05:21:33;20.82;86.41
74224;SHT31;62585;49.706;18.216;2023-06-22T05:23:59;20.82;85.62
74224;SHT31;62585;49.706;18.216;2023-06-22T05:26:28;21.02;85.00
74224;SHT31;62585;49.706;18.216;2023-06-22T05:28:55;21.02;84.70
74224;SHT31;62585;49.706;18.216;2023-06-22T05:31:21;21.09;83.97
74224;SHT31;62585;49.706;18.216;2023-06-22T05:33:48;21.09;84.52
74224;SHT31;62585;49.706;18.216;2023-06-22T05:36:14;21.05;83.58
74224;SHT31;62585;49.706;18.216;2023-06-22T05:38:40;21.39;84.17
74224;SHT31;62585;49.706;18.216;2023-06-22T05:41:07;21.32;83.28
74224;SHT31;62585;49.706;18.216;2023-06-22T05:43:33;21.42;82.70
74224;SHT31;62585;49.706;18.216;2023-06-22T05:46:03;21.56;82.21
74224;SHT31;62585;49.706;18.216;2023-06-22T05:48:29;21.68;83.16
74224;SHT31;62585;49.706;18.216;2023-06-22T05:50:57;21.56;82.65
74224;SHT31;62585;49.706;18.216;2023-06-22T05:53:23;21.60;82.47
74224;SHT31;62585;49.706;18.216;2023-06-22T05:55:49;21.78;82.40
74224;SHT31;62585;49.706;18.216;2023-06-22T05:58:15;21.64;83.57
74224;SHT31;62585;49.706;18.216;2023-06-22T06:00:42;21.78;83.08
74224;SHT31;62585;49.706;18.216;2023-06-22T06:03:09;22.16;82.35
74224;SHT31;62585;49.706;18.216;2023-06-22T06:05:36;22.05;82.75
74224;SHT31;62585;49.706;18.216;2023-06-22T06:08:05;22.09;83.00
74224;SHT31;62585;49.706;18.216;2023-06-22T06:10:32;22.21;81.84
74224;SHT31;62585;49.706;18.216;2023-06-22T06:12:58;22.06;82.91
74224;SHT31;62585;49.706;18.216;2023-06-22T06:15:24;22.21;82.33
74224;SHT31;62585;49.706;18.216;2023-06-22T06:17:52;22.23;82.24
74224;SHT31;62585;49.706;18.216;2023-06-22T06:20:20;22.25;81.95
74224;SHT31;62585;49.706;18.216;2023-06-22T06:22:47;22.15;82.07
74224;SHT31;62585;49.706;18.216;2023-06-22T06:25:13;22.48;82.13
74224;SHT31;62585;49.706;18.216;2023-06-22T06:27:43;22.71;82.35
74224;SHT31;62585;49.706;18.216;2023-06-22T06:30:13;22.76;81.57
74224;SHT31;62585;49.706;18.216;2023-06-22T06:32:40;22.74;81.09
74224;SHT31;62585;49.706;18.216;2023-06-22T06:35:06;22.60;81.44
74224;SHT31;62585;49.706;18.216;2023-06-22T06:37:35;22.86;81.43
74224;SHT31;62585;49.706;18.216;2023-06-22T06:40:03;23.11;82.54
74224;SHT31;62585;49.706;18.216;2023-06-22T06:42:31;23.08;80.63
74224;SHT31;62585;49.706;18.216;2023-06-22T06:44:57;23.31;79.56
74224;SHT31;62585;49.706;18.216;2023-06-22T06:47:22;23.46;77.94
74224;SHT31;62585;49.706;18.216;2023-06-22T06:49:49;23.31;80.42
74224;SHT31;62585;49.706;18.216;2023-06-22T06:52:14;23.10;79.92
74224;SHT31;62585;49.706;18.216;2023-06-22T06:54:40;23.15;80.01
74224;SHT31;62585;49.706;18.216;2023-06-22T06:57:07;23.28;79.60
74224;SHT31;62585;49.706;18.216;2023-06-22T06:59:36;23.04;80.34
74224;SHT31;62585;49.706;18.216;2023-06-22T07:02:02;23.12;80.34
74224;SHT31;62585;49.706;18.216;2023-06-22T07:04:28;23.04;80.25
74224;SHT31;62585;49.706;18.216;2023-06-22T07:06:54;23.31;80.00
74224;SHT31;62585;49.706;18.216;2023-06-22T07:09:19;23.31;79.53
74224;SHT31;62585;49.706;18.216;2023-06-22T07:11:45;23.44;80.58
74224;SHT31;62585;49.706;18.216;2023-06-22T07:14:11;23.10;80.64
74224;SHT31;62585;49.706;18.216;2023-06-22T07:16:37;23.44;79.90
74224;SHT31;62585;49.706;18.216;2023-06-22T07:19:03;23.77;78.62
74224;SHT31;62585;49.706;18.216;2023-06-22T07:21:29;23.77;78.43
74224;SHT31;62585;49.706;18.216;2023-06-22T07:23:55;23.62;79.05
74224;SHT31;62585;49.706;18.216;2023-06-22T07:26:22;23.90;79.44
74224;SHT31;62585;49.706;18.216;2023-06-22T07:28:48;23.83;77.87
74224;SHT31;62585;49.706;18.216;2023-06-22T07:31:13;24.20;77.22
74224;SHT31;62585;49.706;18.216;2023-06-22T07:33:39;23.92;77.88
74224;SHT31;62585;49.706;18.216;2023-06-22T07:36:05;23.97;77.91
74224;SHT31;62585;49.706;18.216;2023-06-22T07:38:34;24.13;77.96
74224;SHT31;62585;49.706;18.216;2023-06-22T07:41:01;24.23;77.18
74224;SHT31;62585;49.706;18.216;2023-06-22T07:43:30;24.02;78.74
74224;SHT31;62585;49.706;18.216;2023-06-22T07:45:55;24.10;78.41
74224;SHT31;62585;49.706;18.216;2023-06-22T07:48:21;24.10;78.27
74224;SHT31;62585;49.706;18.216;2023-06-22T07:50:48;24.20;77.81
74224;SHT31;62585;49.706;18.216;2023-06-22T07:53:14;24.27;77.67
74224;SHT31;62585;49.706;18.216;2023-06-22T07:55:39;24.50;76.48
74224;SHT31;62585;49.706;18.216;2023-06-22T07:58:05;24.62;76.52
74224;SHT31;62585;49.706;18.216;2023-06-22T08:00:31;24.99;76.61
74224;SHT31;62585;49.706;18.216;2023-06-22T08:02:59;25.07;77.86
74224;SHT31;62585;49.706;18.216;2023-06-22T08:05:24;24.92;77.16
74224;SHT31;62585;49.706;18.216;2023-06-22T08:07:50;25.24;75.87
74224;SHT31;62585;49.706;18.216;2023-06-22T08:10:17;25.45;76.83
74224;SHT31;62585;49.706;18.216;2023-06-22T08:12:43;25.54;74.92
74224;SHT31;62585;49.706;18.216;2023-06-22T08:15:08;25.92;76.02
74224;SHT31;62585;49.706;18.216;2023-06-22T08:17:37;25.81;74.41
74224;SHT31;62585;49.706;18.216;2023-06-22T08:20:04;25.91;75.14
74224;SHT31;62585;49.706;18.216;2023-06-22T08:22:35;26.20;74.12
74224;SHT31;62585;49.706;18.216;2023-06-22T08:25:02;26.43;73.13
74224;SHT31;62585;49.706;18.216;2023-06-22T08:27:32;26.30;72.63
74224;SHT31;62585;49.706;18.216;2023-06-22T08:29:59;26.12;71.33
74224;SHT31;62585;49.706;18.216;2023-06-22T08:32:27;25.96;71.91
74224;SHT31;62585;49.706;18.216;2023-06-22T08:34:54;26.51;73.83
74224;SHT31;62585;49.706;18.216;2023-06-22T08:37:20;26.65;71.94
74224;SHT31;62585;49.706;18.216;2023-06-22T08:39:46;26.98;70.27
74224;SHT31;62585;49.706;18.216;2023-06-22T08:42:12;26.87;68.29
74224;SHT31;62585;49.706;18.216;2023-06-22T08:44:38;27.18;69.70
74224;SHT31;62585;49.706;18.216;2023-06-22T08:47:04;26.90;67.41
74224;SHT31;62585;49.706;18.216;2023-06-22T08:49:30;26.74;67.91
74224;SHT31;62585;49.706;18.216;2023-06-22T08:51:56;27.33;69.37
74224;SHT31;62585;49.706;18.216;2023-06-22T08:54:22;27.52;70.13
74224;SHT31;62585;49.706;18.216;2023-06-22T08:56:48;27.53;68.34
74224;SHT31;62585;49.706;18.216;2023-06-22T08:59:14;27.67;66.52
74224;SHT31;62585;49.706;18.216;2023-06-22T09:01:40;27.35;68.71
74224;SHT31;62585;49.706;18.216;2023-06-22T09:04:05;26.94;67.86
74224;SHT31;62585;49.706;18.216;2023-06-22T09:06:36;26.95;66.06
74224;SHT31;62585;49.706;18.216;2023-06-22T09:09:06;27.50;66.77
74224;SHT31;62585;49.706;18.216;2023-06-22T09:11:32;27.70;65.13
74224;SHT31;62585;49.706;18.216;2023-06-22T09:13:58;27.76;65.59
74224;SHT31;62585;49.706;18.216;2023-06-22T09:16:24;27.69;66.34
74224;SHT31;62585;49.706;18.216;2023-06-22T09:18:50;27.66;65.78
74224;SHT31;62585;49.706;18.216;2023-06-22T09:21:15;27.53;64.71
74224;SHT31;62585;49.706;18.216;2023-06-22T09:23:41;27.71;66.86
74224;SHT31;62585;49.706;18.216;2023-06-22T09:26:08;28.10;67.00
74224;SHT31;62585;49.706;18.216;2023-06-22T09:28:34;28.31;66.34
74224;SHT31;62585;49.706;18.216;2023-06-22T09:31:00;28.25;64.62
74224;SHT31;62585;49.706;18.216;2023-06-22T09:33:26;28.17;62.50
74224;SHT31;62585;49.706;18.216;2023-06-22T09:35:52;28.38;62.98
74224;SHT31;62585;49.706;18.216;2023-06-22T09:38:18;28.32;64.16
74224;SHT31;62585;49.706;18.216;2023-06-22T09:40:43;28.39;62.53
74224;SHT31;62585;49.706;18.216;2023-06-22T09:43:10;28.41;63.31
74224;SHT31;62585;49.706;18.216;2023-06-22T09:45:37;28.44;63.60
74224;SHT31;62585;49.706;18.216;2023-06-22T09:48:06;28.27;62.24
74224;SHT31;62585;49.706;18.216;2023-06-22T09:50:31;28.37;62.03
74224;SHT31;62585;49.706;18.216;2023-06-22T09:52:57;28.55;63.72
74224;SHT31;62585;49.706;18.216;2023-06-22T09:55:23;28.35;62.27
74224;SHT31;62585;49.706;18.216;2023-06-22T09:57:49;28.66;63.49
74224;SHT31;62585;49.706;18.216;2023-06-22T10:00:16;28.73;61.66
74224;SHT31;62585;49.706;18.216;2023-06-22T10:02:42;28.83;63.54
74224;SHT31;62585;49.706;18.216;2023-06-22T10:05:08;29.17;62.66
74224;SHT31;62585;49.706;18.216;2023-06-22T10:07:34;28.79;61.00
74224;SHT31;62585;49.706;18.216;2023-06-22T10:10:00;28.67;60.77
74224;SHT31;62585;49.706;18.216;2023-06-22T10:12:27;29.08;60.06
74224;SHT31;62585;49.706;18.216;2023-06-22T10:14:53;29.17;61.21
74224;SHT31;62585;49.706;18.216;2023-06-22T10:17:19;28.76;61.25
74224;SHT31;62585;49.706;18.216;2023-06-22T10:19:47;29.03;62.77
74224;SHT31;62585;49.706;18.216;2023-06-22T10:22:13;28.96;60.99
74224;SHT31;62585;49.706;18.216;2023-06-22T10:24:39;29.03;61.02
74224;SHT31;62585;49.706;18.216;2023-06-22T10:27:12;29.37;61.59
74224;SHT31;62585;49.706;18.216;2023-06-22T10:29:39;29.51;59.65
74224;SHT31;62585;49.706;18.216;2023-06-22T10:32:05;29.58;61.43
74224;SHT31;62585;49.706;18.216;2023-06-22T10:34:31;29.42;60.70
74224;SHT31;62585;49.706;18.216;2023-06-22T10:36:57;29.58;60.52
74224;SHT31;62585;49.706;18.216;2023-06-22T10:39:23;29.37;61.59
74224;SHT31;62585;49.706;18.216;2023-06-22T10:41:48;29.31;60.06
74224;SHT31;62585;49.706;18.216;2023-06-22T10:44:14;29.15;59.42
74224;SHT31;62585;49.706;18.216;2023-06-22T10:46:40;28.94;59.92
74224;SHT31;62585;49.706;18.216;2023-06-22T10:49:05;29.21;60.24
74224;SHT31;62585;49.706;18.216;2023-06-22T10:51:31;29.37;61.92
74224;SHT31;62585;49.706;18.216;2023-06-22T10:53:57;29.61;60.99
74224;SHT31;62585;49.706;18.216;2023-06-22T10:56:23;29.78;59.66
74224;SHT31;62585;49.706;18.216;2023-06-22T10:58:49;30.06;57.94
74224;SHT31;62585;49.706;18.216;2023-06-22T11:01:15;29.96;60.01
74224;SHT31;62585;49.706;18.216;2023-06-22T11:03:41;29.98;59.23
74224;SHT31;62585;49.706;18.216;2023-06-22T11:06:07;30.33;57.84
74224;SHT31;62585;49.706;18.216;2023-06-22T11:08:33;30.10;57.11
74224;SHT31;62585;49.706;18.216;2023-06-22T11:10:58;30.40;56.19
74224;SHT31;62585;49.706;18.216;2023-06-22T11:13:24;30.21;58.08
74224;SHT31;62585;49.706;18.216;2023-06-22T11:15:50;30.26;58.00
74224;SHT31;62585;49.706;18.216;2023-06-22T11:18:16;30.19;58.17
74224;SHT31;62585;49.706;18.216;2023-06-22T11:20:42;30.43;59.00
74224;SHT31;62585;49.706;18.216;2023-06-22T11:23:08;30.36;58.16
74224;SHT31;62585;49.706;18.216;2023-06-22T11:25:33;30.82;57.00
74224;SHT31;62585;49.706;18.216;2023-06-22T11:28:04;30.82;56.90
74224;SHT31;62585;49.706;18.216;2023-06-22T11:30:30;30.75;56.53
74224;SHT31;62585;49.706;18.216;2023-06-22T11:32:56;30.05;59.24
74224;SHT31;62585;49.706;18.216;2023-06-22T11:35:22;29.08;60.33
74224;SHT31;62585;49.706;18.216;2023-06-22T11:37:48;29.47;59.36
74224;SHT31;62585;49.706;18.216;2023-06-22T11:40:14;30.06;58.54
74224;SHT31;62585;49.706;18.216;2023-06-22T11:42:40;30.33;57.24
74224;SHT31;62585;49.706;18.216;2023-06-22T11:45:06;30.12;55.60
74224;SHT31;62585;49.706;18.216;2023-06-22T11:47:32;30.27;56.89
74224;SHT31;62585;49.706;18.216;2023-06-22T11:49:58;30.36;55.41
74224;SHT31;62585;49.706;18.216;2023-06-22T11:52:24;30.13;57.18
74224;SHT31;62585;49.706;18.216;2023-06-22T11:54:50;30.72;58.02
74224;SHT31;62585;49.706;18.216;2023-06-22T11:57:16;30.68;57.96
74224;SHT31;62585;49.706;18.216;2023-06-22T11:59:41;29.96;59.41
74224;SHT31;62585;49.706;18.216;2023-06-22T12:02:07;30.02;60.23
74224;SHT31;62585;49.706;18.216;2023-06-22T12:04:35;30.56;57.24
74224;SHT31;62585;49.706;18.216;2023-06-22T12:07:01;30.72;56.77
74224;SHT31;62585;49.706;18.216;2023-06-22T12:09:27;30.82;57.63
74224;SHT31;62585;49.706;18.216;2023-06-22T12:11:53;30.36;54.30
74224;SHT31;62585;49.706;18.216;2023-06-22T12:14:19;30.64;54.72
74224;SHT31;62585;49.706;18.216;2023-06-22T12:16:45;30.45;53.48
74224;SHT31;62585;49.706;18.216;2023-06-22T12:19:11;30.86;56.26
74224;SHT31;62585;49.706;18.216;2023-06-22T12:21:37;30.72;54.75
74224;SHT31;62585;49.706;18.216;2023-06-22T12:24:03;30.58;56.08
74224;SHT31;62585;49.706;18.216;2023-06-22T12:26:29;30.51;55.86
74224;SHT31;62585;49.706;18.216;2023-06-22T12:28:55;31.18;54.74
74224;SHT31;62585;49.706;18.216;2023-06-22T12:31:21;30.76;57.11
74224;SHT31;62585;49.706;18.216;2023-06-22T12:33:47;30.79;56.40
74224;SHT31;62585;49.706;18.216;2023-06-22T12:36:13;31.02;55.20
74224;SHT31;62585;49.706;18.216;2023-06-22T12:38:38;31.26;53.17
74224;SHT31;62585;49.706;18.216;2023-06-22T12:41:04;31.13;53.84
74224;SHT31;62585;49.706;18.216;2023-06-22T12:43:30;31.66;54.82
74224;SHT31;62585;49.706;18.216;2023-06-22T12:45:56;31.25;53.43
74224;SHT31;62585;49.706;18.216;2023-06-22T12:48:22;30.74;53.50
74224;SHT31;62585;49.706;18.216;2023-06-22T12:50:48;31.36;53.98
74224;SHT31;62585;49.706;18.216;2023-06-22T12:53:14;31.25;54.04
74224;SHT31;62585;49.706;18.216;2023-06-22T12:55:40;31.39;53.12
74224;SHT31;62585;49.706;18.216;2023-06-22T12:58:06;31.25;51.98
74224;SHT31;62585;49.706;18.216;2023-06-22T13:00:32;31.77;51.92
74224;SHT31;62585;49.706;18.216;2023-06-22T13:02:57;32.19;52.78
74224;SHT31;62585;49.706;18.216;2023-06-22T13:05:24;31.44;52.19
74224;SHT31;62585;49.706;18.216;2023-06-22T13:07:52;31.66;53.22
74224;SHT31;62585;49.706;18.216;2023-06-22T13:10:21;32.31;54.32
74224;SHT31;62585;49.706;18.216;2023-06-22T13:12:46;31.71;52.79
74224;SHT31;62585;49.706;18.216;2023-06-22T13:15:12;31.60;53.39
74224;SHT31;62585;49.706;18.216;2023-06-22T13:17:38;31.36;53.61
74224;SHT31;62585;49.706;18.216;2023-06-22T13:20:05;31.54;54.62
74224;SHT31;62585;49.706;18.216;2023-06-22T13:22:34;31.33;53.49
74224;SHT31;62585;49.706;18.216;2023-06-22T13:25:06;31.46;51.15
74224;SHT31;62585;49.706;18.216;2023-06-22T13:27:32;31.21;52.53
74224;SHT31;62585;49.706;18.216;2023-06-22T13:29:58;31.54;50.67
74224;SHT31;62585;49.706;18.216;2023-06-22T13:32:24;31.63;50.16
74224;SHT31;62585;49.706;18.216;2023-06-22T13:34:53;31.97;51.36
74224;SHT31;62585;49.706;18.216;2023-06-22T13:37:19;32.14;53.49
74224;SHT31;62585;49.706;18.216;2023-06-22T13:39:45;31.85;50.89
74224;SHT31;62585;49.706;18.216;2023-06-22T13:42:10;32.15;50.32
74224;SHT31;62585;49.706;18.216;2023-06-22T13:44:36;32.18;49.13
74224;SHT31;62585;49.706;18.216;2023-06-22T13:47:02;32.63;50.75
74224;SHT31;62585;49.706;18.216;2023-06-22T13:49:28;32.31;49.56
74224;SHT31;62585;49.706;18.216;2023-06-22T13:51:54;32.36;49.49
74224;SHT31;62585;49.706;18.216;2023-06-22T13:54:20;32.42;49.72
74224;SHT31;62585;49.706;18.216;2023-06-22T13:56:46;31.91;51.94
74224;SHT31;62585;49.706;18.216;2023-06-22T13:59:12;31.82;50.45
74224;SHT31;62585;49.706;18.216;2023-06-22T14:01:38;32.05;50.50
74224;SHT31;62585;49.706;18.216;2023-06-22T14:04:05;32.09;49.96
74224;SHT31;62585;49.706;18.216;2023-06-22T14:06:31;31.85;50.73
74224;SHT31;62585;49.706;18.216;2023-06-22T14:08:57;31.99;51.05
74224;SHT31;62585;49.706;18.216;2023-06-22T14:13:55;32.18;47.78
74224;SHT31;62585;49.706;18.216;2023-06-22T14:16:21;32.18;50.92
74224;SHT31;62585;49.706;18.216;2023-06-22T14:18:47;31.78;51.17
74224;SHT31;62585;49.706;18.216;2023-06-22T14:21:13;31.18;51.68
74224;SHT31;62585;49.706;18.216;2023-06-22T14:23:38;30.53;53.12
74224;SHT31;62585;49.706;18.216;2023-06-22T14:26:04;30.48;52.73
74224;SHT31;62585;49.706;18.216;2023-06-22T14:28:30;30.47;53.47
74224;SHT31;62585;49.706;18.216;2023-06-22T14:30:56;30.85;53.74
74224;SHT31;62585;49.706;18.216;2023-06-22T14:33:22;31.08;52.36
74224;SHT31;62585;49.706;18.216;2023-06-22T14:35:48;30.94;53.03
74224;SHT31;62585;49.706;18.216;2023-06-22T14:38:14;30.68;52.49
74224;SHT31;62585;49.706;18.216;2023-06-22T14:40:40;30.74;52.76
74224;SHT31;62585;49.706;18.216;2023-06-22T14:43:06;30.84;53.89
74224;SHT31;62585;49.706;18.216;2023-06-22T14:45:32;30.85;54.15
74224;SHT31;62585;49.706;18.216;2023-06-22T14:47:57;31.18;53.80
74224;SHT31;62585;49.706;18.216;2023-06-22T14:50:23;31.47;53.12
74224;SHT31;62585;49.706;18.216;2023-06-22T14:52:49;31.22;52.52
74224;SHT31;62585;49.706;18.216;2023-06-22T14:55:15;31.15;51.55
74224;SHT31;62585;49.706;18.216;2023-06-22T14:57:40;31.26;53.94
74224;SHT31;62585;49.706;18.216;2023-06-22T15:00:07;30.99;51.79
74224;SHT31;62585;49.706;18.216;2023-06-22T15:02:32;30.82;51.75
74224;SHT31;62585;49.706;18.216;2023-06-22T15:04:58;30.94;52.70
74224;SHT31;62585;49.706;18.216;2023-06-22T15:07:24;30.95;52.10
74224;SHT31;62585;49.706;18.216;2023-06-22T15:09:50;31.37;53.79
74224;SHT31;62585;49.706;18.216;2023-06-22T15:12:16;31.11;53.47
74224;SHT31;62585;49.706;18.216;2023-06-22T15:14:42;31.22;51.96
74224;SHT31;62585;49.706;18.216;2023-06-22T15:17:08;31.33;52.67
74224;SHT31;62585;49.706;18.216;2023-06-22T15:19:35;31.26;53.83
74224;SHT31;62585;49.706;18.216;2023-06-22T15:22:06;31.37;52.60